sensor_id;sensor_type;location;lat;lon;timestamp;P1;durP1;ratioP1;P2;durP2;ratioP2
78824;SDS011;68176;45.554;10.220;2024-01-27T00:00:25;35.60;;;23.50;;
78824;SDS011;68176;45.554;10.220;2024-01-27T00:02:54;37.83;;;24.83;;
78824;SDS011;68176;45.554;10.220;2024-01-27T00:07:54;33.63;;;22.25;;
78824;SDS011;68176;45.554;10.220;2024-01-27T00:10:25;39.05;;;23.38;;
78824;SDS011;68176;45.554;10.220;2024-01-27T00:12:55;35.58;;;22.88;;
78824;SDS011;68176;45.554;10.220;2024-01-27T00:17:55;34.78;;;22.30;;
78824;SDS011;68176;45.554;10.220;2024-01-27T00:22:54;32.38;;;22.25;;
78824;SDS011;68176;45.554;10.220;2024-01-27T00:25:25;33.92;;;22.38;;
78824;SDS011;68176;45.554;10.220;2024-01-27T00:27:55;36.05;;;23.42;;
78824;SDS011;68176;45.554;10.220;2024-01-27T00:30:25;35.35;;;24.00;;
78824;SDS011;68176;45.554;10.220;2024-01-27T00:32:55;37.30;;;22.55;;
78824;SDS011;68176;45.554;10.220;2024-01-27T00:35:25;31.30;;;21.95;;
78824;SDS011;68176;45.554;10.220;2024-01-27T00:37:55;36.08;;;22.13;;
78824;SDS011;68176;45.554;10.220;2024-01-27T00:40:25;35.40;;;22.75;;
78824;SDS011;68176;45.554;10.220;2024-01-27T00:42:55;35.88;;;22.33;;
78824;SDS011;68176;45.554;10.220;2024-01-27T00:45:25;33.50;;;23.60;;
78824;SDS011;68176;45.554;10.220;2024-01-27T00:47:55;31.50;;;20.85;;
78824;SDS011;68176;45.554;10.220;2024-01-27T00:50:25;40.33;;;22.52;;
78824;SDS011;68176;45.554;10.220;2024-01-27T00:52:55;30.80;;;20.98;;
78824;SDS011;68176;45.554;10.220;2024-01-27T00:57:55;33.05;;;20.42;;
78824;SDS011;68176;45.554;10.220;2024-01-27T01:00:25;33.13;;;22.02;;
78824;SDS011;68176;45.554;10.220;2024-01-27T01:02:55;34.10;;;21.83;;
78824;SDS011;68176;45.554;10.220;2024-01-27T01:05:25;31.35;;;20.60;;
78824;SDS011;68176;45.554;10.220;2024-01-27T01:07:55;30.17;;;20.08;;
78824;SDS011;68176;45.554;10.220;2024-01-27T01:10:25;31.73;;;20.83;;
78824;SDS011;68176;45.554;10.220;2024-01-27T01:12:55;29.75;;;19.38;;
78824;SDS011;68176;45.554;10.220;2024-01-27T01:15:25;32.05;;;21.85;;
78824;SDS011;68176;45.554;10.220;2024-01-27T01:17:55;32.50;;;20.63;;
78824;SDS011;68176;45.554;10.220;2024-01-27T01:20:25;29.30;;;20.50;;
78824;SDS011;68176;45.554;10.220;2024-01-27T01:22:55;31.35;;;21.13;;
78824;SDS011;68176;45.554;10.220;2024-01-27T01:25:25;31.50;;;21.45;;
78824;SDS011;68176;45.554;10.220;2024-01-27T01:27:55;32.90;;;21.42;;
78824;SDS011;68176;45.554;10.220;2024-01-27T01:30:25;31.63;;;20.67;;
78824;SDS011;68176;45.554;10.220;2024-01-27T01:32:55;29.38;;;19.42;;
78824;SDS011;68176;45.554;10.220;2024-01-27T01:35:25;27.77;;;20.33;;
78824;SDS011;68176;45.554;10.220;2024-01-27T01:40:25;30.00;;;19.73;;
78824;SDS011;68176;45.554;10.220;2024-01-27T01:42:55;28.35;;;18.30;;
78824;SDS011;68176;45.554;10.220;2024-01-27T01:47:55;28.65;;;18.92;;
78824;SDS011;68176;45.554;10.220;2024-01-27T01:50:25;31.17;;;18.30;;
78824;SDS011;68176;45.554;10.220;2024-01-27T01:52:55;29.13;;;19.20;;
78824;SDS011;68176;45.554;10.220;2024-01-27T01:55:25;30.02;;;19.92;;
78824;SDS011;68176;45.554;10.220;2024-01-27T01:57:55;31.33;;;19.17;;
78824;SDS011;68176;45.554;10.220;2024-01-27T02:00:25;30.23;;;18.80;;
78824;SDS011;68176;45.554;10.220;2024-01-27T02:02:55;27.90;;;18.48;;
78824;SDS011;68176;45.554;10.220;2024-01-27T02:05:25;24.42;;;17.95;;
78824;SDS011;68176;45.554;10.220;2024-01-27T02:07:55;27.58;;;19.38;;
78824;SDS011;68176;45.554;10.220;2024-01-27T02:10:25;23.85;;;17.08;;
78824;SDS011;68176;45.554;10.220;2024-01-27T02:12:55;25.77;;;17.20;;
78824;SDS011;68176;45.554;10.220;2024-01-27T02:15:25;28.50;;;19.35;;
78824;SDS011;68176;45.554;10.220;2024-01-27T02:17:55;26.30;;;18.10;;
78824;SDS011;68176;45.554;10.220;2024-01-27T02:20:25;24.23;;;16.85;;
78824;SDS011;68176;45.554;10.220;2024-01-27T02:22:55;26.40;;;17.42;;
78824;SDS011;68176;45.554;10.220;2024-01-27T02:25:25;26.23;;;18.33;;
78824;SDS011;68176;45.554;10.220;2024-01-27T02:27:55;25.52;;;17.70;;
78824;SDS011;68176;45.554;10.220;2024-01-27T02:30:25;24.98;;;17.08;;
78824;SDS011;68176;45.554;10.220;2024-01-27T02:32:56;26.05;;;16.52;;
78824;SDS011;68176;45.554;10.220;2024-01-27T02:35:26;23.95;;;16.83;;
78824;SDS011;68176;45.554;10.220;2024-01-27T02:37:55;28.42;;;17.35;;
78824;SDS011;68176;45.554;10.220;2024-01-27T02:42:55;25.65;;;16.95;;
78824;SDS011;68176;45.554;10.220;2024-01-27T02:45:25;23.45;;;17.90;;
78824;SDS011;68176;45.554;10.220;2024-01-27T02:47:55;23.90;;;17.35;;
78824;SDS011;68176;45.554;10.220;2024-01-27T02:50:25;24.65;;;18.35;;
78824;SDS011;68176;45.554;10.220;2024-01-27T02:52:55;28.63;;;17.77;;
78824;SDS011;68176;45.554;10.220;2024-01-27T02:57:55;22.52;;;14.20;;
78824;SDS011;68176;45.554;10.220;2024-01-27T03:00:25;24.13;;;16.10;;
78824;SDS011;68176;45.554;10.220;2024-01-27T03:02:55;24.48;;;16.20;;
78824;SDS011;68176;45.554;10.220;2024-01-27T03:05:25;26.92;;;16.85;;
78824;SDS011;68176;45.554;10.220;2024-01-27T03:07:55;20.80;;;14.95;;
78824;SDS011;68176;45.554;10.220;2024-01-27T03:10:25;22.58;;;16.08;;
78824;SDS011;68176;45.554;10.220;2024-01-27T03:12:55;22.65;;;15.88;;
78824;SDS011;68176;45.554;10.220;2024-01-27T03:15:25;22.05;;;14.90;;
78824;SDS011;68176;45.554;10.220;2024-01-27T03:17:55;23.88;;;16.25;;
78824;SDS011;68176;45.554;10.220;2024-01-27T03:20:26;24.08;;;17.55;;
78824;SDS011;68176;45.554;10.220;2024-01-27T03:22:55;21.02;;;14.32;;
78824;SDS011;68176;45.554;10.220;2024-01-27T03:27:55;23.02;;;14.93;;
78824;SDS011;68176;45.554;10.220;2024-01-27T03:30:25;23.00;;;15.10;;
78824;SDS011;68176;45.554;10.220;2024-01-27T03:32:56;19.58;;;14.45;;
78824;SDS011;68176;45.554;10.220;2024-01-27T03:37:55;21.58;;;13.63;;
78824;SDS011;68176;45.554;10.220;2024-01-27T03:40:26;21.42;;;14.60;;
78824;SDS011;68176;45.554;10.220;2024-01-27T03:42:56;21.75;;;15.45;;
78824;SDS011;68176;45.554;10.220;2024-01-27T03:45:25;23.05;;;14.90;;
78824;SDS011;68176;45.554;10.220;2024-01-27T03:47:55;21.02;;;14.32;;
78824;SDS011;68176;45.554;10.220;2024-01-27T03:50:26;20.60;;;13.98;;
78824;SDS011;68176;45.554;10.220;2024-01-27T03:55:25;21.92;;;14.15;;
78824;SDS011;68176;45.554;10.220;2024-01-27T04:00:26;22.30;;;14.40;;
78824;SDS011;68176;45.554;10.220;2024-01-27T04:02:56;19.58;;;13.63;;
78824;SDS011;68176;45.554;10.220;2024-01-27T04:05:26;20.27;;;14.05;;
78824;SDS011;68176;45.554;10.220;2024-01-27T04:07:56;18.17;;;12.43;;
78824;SDS011;68176;45.554;10.220;2024-01-27T04:10:26;18.75;;;13.32;;
78824;SDS011;68176;45.554;10.220;2024-01-27T04:12:56;19.75;;;13.18;;
78824;SDS011;68176;45.554;10.220;2024-01-27T04:15:26;20.27;;;13.80;;
78824;SDS011;68176;45.554;10.220;2024-01-27T04:17:56;19.10;;;12.68;;
78824;SDS011;68176;45.554;10.220;2024-01-27T04:20:26;19.52;;;12.90;;
78824;SDS011;68176;45.554;10.220;2024-01-27T04:22:56;19.73;;;13.93;;
78824;SDS011;68176;45.554;10.220;2024-01-27T04:25:26;16.55;;;11.02;;
78824;SDS011;68176;45.554;10.220;2024-01-27T04:30:26;18.42;;;13.63;;
78824;SDS011;68176;45.554;10.220;2024-01-27T04:32:56;17.92;;;13.40;;
78824;SDS011;68176;45.554;10.220;2024-01-27T04:35:26;19.30;;;13.10;;
78824;SDS011;68176;45.554;10.220;2024-01-27T04:37:56;20.02;;;12.70;;
78824;SDS011;68176;45.554;10.220;2024-01-27T04:42:56;20.98;;;12.27;;
78824;SDS011;68176;45.554;10.220;2024-01-27T04:45:26;17.40;;;12.77;;
78824;SDS011;68176;45.554;10.220;2024-01-27T04:50:26;19.63;;;12.63;;
78824;SDS011;68176;45.554;10.220;2024-01-27T04:52:56;18.70;;;12.45;;
78824;SDS011;68176;45.554;10.220;2024-01-27T04:57:56;19.45;;;13.20;;
78824;SDS011;68176;45.554;10.220;2024-01-27T05:00:26;18.55;;;10.68;;
78824;SDS011;68176;45.554;10.220;2024-01-27T05:02:56;17.25;;;12.32;;
78824;SDS011;68176;45.554;10.220;2024-01-27T05:05:26;15.98;;;11.30;;
78824;SDS011;68176;45.554;10.220;2024-01-27T05:10:26;15.75;;;11.52;;
78824;SDS011;68176;45.554;10.220;2024-01-27T05:12:56;17.92;;;12.10;;
78824;SDS011;68176;45.554;10.220;2024-01-27T05:17:56;18.02;;;10.85;;
78824;SDS011;68176;45.554;10.220;2024-01-27T05:20:26;17.33;;;12.40;;
78824;SDS011;68176;45.554;10.220;2024-01-27T05:22:56;15.15;;;11.23;;
78824;SDS011;68176;45.554;10.220;2024-01-27T05:25:26;15.70;;;10.63;;
78824;SDS011;68176;45.554;10.220;2024-01-27T05:27:56;17.55;;;11.68;;
78824;SDS011;68176;45.554;10.220;2024-01-27T05:30:26;16.17;;;11.07;;
78824;SDS011;68176;45.554;10.220;2024-01-27T05:32:59;16.02;;;10.90;;
78824;SDS011;68176;45.554;10.220;2024-01-27T05:35:26;13.38;;;10.73;;
78824;SDS011;68176;45.554;10.220;2024-01-27T05:37:56;15.10;;;11.27;;
78824;SDS011;68176;45.554;10.220;2024-01-27T05:40:26;15.55;;;11.80;;
78824;SDS011;68176;45.554;10.220;2024-01-27T05:42:56;15.50;;;10.63;;
78824;SDS011;68176;45.554;10.220;2024-01-27T05:45:26;20.88;;;12.73;;
78824;SDS011;68176;45.554;10.220;2024-01-27T05:47:56;18.23;;;11.57;;
78824;SDS011;68176;45.554;10.220;2024-01-27T05:52:56;18.02;;;11.50;;
78824;SDS011;68176;45.554;10.220;2024-01-27T05:55:26;15.10;;;10.75;;
78824;SDS011;68176;45.554;10.220;2024-01-27T05:57:56;12.65;;;9.73;;
78824;SDS011;68176;45.554;10.220;2024-01-27T06:00:26;15.18;;;11.00;;
78824;SDS011;68176;45.554;10.220;2024-01-27T06:02:56;14.43;;;10.80;;
78824;SDS011;68176;45.554;10.220;2024-01-27T06:05:26;17.90;;;13.18;;
78824;SDS011;68176;45.554;10.220;2024-01-27T06:07:56;14.45;;;10.43;;
78824;SDS011;68176;45.554;10.220;2024-01-27T06:10:26;13.60;;;10.02;;
78824;SDS011;68176;45.554;10.220;2024-01-27T06:15:26;13.70;;;9.88;;
78824;SDS011;68176;45.554;10.220;2024-01-27T06:17:56;15.93;;;10.25;;
78824;SDS011;68176;45.554;10.220;2024-01-27T06:20:26;13.38;;;10.13;;
78824;SDS011;68176;45.554;10.220;2024-01-27T06:22:56;13.00;;;10.35;;
78824;SDS011;68176;45.554;10.220;2024-01-27T06:25:26;14.27;;;9.15;;
78824;SDS011;68176;45.554;10.220;2024-01-27T06:27:56;12.80;;;9.43;;
78824;SDS011;68176;45.554;10.220;2024-01-27T06:30:26;14.82;;;9.73;;
78824;SDS011;68176;45.554;10.220;2024-01-27T06:32:56;14.85;;;10.50;;
78824;SDS011;68176;45.554;10.220;2024-01-27T06:35:26;15.93;;;11.23;;
78824;SDS011;68176;45.554;10.220;2024-01-27T06:37:56;13.13;;;9.07;;
78824;SDS011;68176;45.554;10.220;2024-01-27T06:40:26;14.10;;;10.35;;
78824;SDS011;68176;45.554;10.220;2024-01-27T06:45:26;16.25;;;9.18;;
78824;SDS011;68176;45.554;10.220;2024-01-27T06:50:26;11.40;;;8.73;;
78824;SDS011;68176;45.554;10.220;2024-01-27T06:52:56;13.02;;;9.00;;
78824;SDS011;68176;45.554;10.220;2024-01-27T06:55:26;15.27;;;11.23;;
78824;SDS011;68176;45.554;10.220;2024-01-27T06:57:56;16.63;;;9.93;;
78824;SDS011;68176;45.554;10.220;2024-01-27T07:02:57;15.48;;;10.10;;
78824;SDS011;68176;45.554;10.220;2024-01-27T07:05:26;12.07;;;9.23;;
78824;SDS011;68176;45.554;10.220;2024-01-27T07:10:27;13.85;;;8.45;;
78824;SDS011;68176;45.554;10.220;2024-01-27T07:12:56;11.27;;;8.68;;
78824;SDS011;68176;45.554;10.220;2024-01-27T07:15:26;11.73;;;8.52;;
78824;SDS011;68176;45.554;10.220;2024-01-27T07:17:57;12.77;;;9.40;;
78824;SDS011;68176;45.554;10.220;2024-01-27T07:20:29;14.35;;;10.68;;
78824;SDS011;68176;45.554;10.220;2024-01-27T07:22:56;11.82;;;8.98;;
78824;SDS011;68176;45.554;10.220;2024-01-27T07:25:27;13.52;;;9.20;;
78824;SDS011;68176;45.554;10.220;2024-01-27T07:27:57;11.77;;;8.85;;
78824;SDS011;68176;45.554;10.220;2024-01-27T07:30:26;13.70;;;9.20;;
78824;SDS011;68176;45.554;10.220;2024-01-27T07:32:57;12.95;;;8.75;;
78824;SDS011;68176;45.554;10.220;2024-01-27T07:35:27;10.55;;;8.38;;
78824;SDS011;68176;45.554;10.220;2024-01-27T07:37:57;12.75;;;8.88;;
78824;SDS011;68176;45.554;10.220;2024-01-27T07:40:27;11.35;;;8.13;;
78824;SDS011;68176;45.554;10.220;2024-01-27T07:42:57;11.85;;;8.75;;
78824;SDS011;68176;45.554;10.220;2024-01-27T07:45:27;14.02;;;9.23;;
78824;SDS011;68176;45.554;10.220;2024-01-27T07:50:27;13.02;;;8.02;;
78824;SDS011;68176;45.554;10.220;2024-01-27T07:52:57;11.30;;;8.73;;
78824;SDS011;68176;45.554;10.220;2024-01-27T07:55:27;13.07;;;8.95;;
78824;SDS011;68176;45.554;10.220;2024-01-27T07:57:57;12.93;;;8.88;;
78824;SDS011;68176;45.554;10.220;2024-01-27T08:00:27;13.82;;;10.25;;
78824;SDS011;68176;45.554;10.220;2024-01-27T08:02:57;10.38;;;8.38;;
78824;SDS011;68176;45.554;10.220;2024-01-27T08:05:27;13.43;;;10.68;;
78824;SDS011;68176;45.554;10.220;2024-01-27T08:07:57;11.25;;;7.35;;
78824;SDS011;68176;45.554;10.220;2024-01-27T08:10:27;13.10;;;7.32;;
78824;SDS011;68176;45.554;10.220;2024-01-27T08:15:27;11.82;;;7.07;;
78824;SDS011;68176;45.554;10.220;2024-01-27T08:17:57;15.85;;;8.65;;
78824;SDS011;68176;45.554;10.220;2024-01-27T08:20:30;11.98;;;8.52;;
78824;SDS011;68176;45.554;10.220;2024-01-27T08:22:57;9.75;;;7.20;;
78824;SDS011;68176;45.554;10.220;2024-01-27T08:25:27;14.07;;;8.00;;
78824;SDS011;68176;45.554;10.220;2024-01-27T08:27:57;11.90;;;7.07;;
78824;SDS011;68176;45.554;10.220;2024-01-27T08:30:27;15.15;;;7.35;;
78824;SDS011;68176;45.554;10.220;2024-01-27T08:32:57;12.85;;;7.32;;
78824;SDS011;68176;45.554;10.220;2024-01-27T08:35:27;9.73;;;6.25;;
78824;SDS011;68176;45.554;10.220;2024-01-27T08:37:57;14.27;;;7.60;;
78824;SDS011;68176;45.554;10.220;2024-01-27T08:40:27;11.27;;;6.90;;
78824;SDS011;68176;45.554;10.220;2024-01-27T08:42:57;11.93;;;6.63;;
78824;SDS011;68176;45.554;10.220;2024-01-27T08:45:27;11.35;;;7.53;;
78824;SDS011;68176;45.554;10.220;2024-01-27T08:47:57;11.95;;;7.45;;
78824;SDS011;68176;45.554;10.220;2024-01-27T08:50:27;11.07;;;6.53;;
78824;SDS011;68176;45.554;10.220;2024-01-27T08:52:57;12.30;;;8.25;;
78824;SDS011;68176;45.554;10.220;2024-01-27T08:57:57;9.82;;;6.95;;
78824;SDS011;68176;45.554;10.220;2024-01-27T09:00:27;12.13;;;7.43;;
78824;SDS011;68176;45.554;10.220;2024-01-27T09:02:57;10.45;;;7.15;;
78824;SDS011;68176;45.554;10.220;2024-01-27T09:05:39;11.45;;;7.78;;
78824;SDS011;68176;45.554;10.220;2024-01-27T09:08:08;9.70;;;5.97;;
78824;SDS011;68176;45.554;10.220;2024-01-27T09:10:34;8.25;;;5.00;;
78824;SDS011;68176;45.554;10.220;2024-01-27T09:13:02;39.40;;;25.13;;
78824;SDS011;68176;45.554;10.220;2024-01-27T09:15:32;33.80;;;24.25;;
78824;SDS011;68176;45.554;10.220;2024-01-27T09:20:32;31.75;;;21.08;;
78824;SDS011;68176;45.554;10.220;2024-01-27T09:23:02;37.20;;;24.85;;
78824;SDS011;68176;45.554;10.220;2024-01-27T09:25:32;35.67;;;22.67;;
78824;SDS011;68176;45.554;10.220;2024-01-27T09:30:32;32.13;;;22.80;;
78824;SDS011;68176;45.554;10.220;2024-01-27T09:35:32;34.97;;;21.77;;
78824;SDS011;68176;45.554;10.220;2024-01-27T09:38:02;32.45;;;21.67;;
78824;SDS011;68176;45.554;10.220;2024-01-27T09:40:32;31.90;;;22.25;;
78824;SDS011;68176;45.554;10.220;2024-01-27T09:43:03;34.70;;;23.48;;
78824;SDS011;68176;45.554;10.220;2024-01-27T09:45:33;33.67;;;23.23;;
78824;SDS011;68176;45.554;10.220;2024-01-27T09:48:02;35.30;;;24.05;;
78824;SDS011;68176;45.554;10.220;2024-01-27T09:50:33;31.65;;;21.55;;
78824;SDS011;68176;45.554;10.220;2024-01-27T09:53:02;31.20;;;22.13;;
78824;SDS011;68176;45.554;10.220;2024-01-27T09:55:33;30.17;;;19.40;;
78824;SDS011;68176;45.554;10.220;2024-01-27T09:58:03;28.73;;;20.85;;
78824;SDS011;68176;45.554;10.220;2024-01-27T10:00:33;30.63;;;21.48;;
78824;SDS011;68176;45.554;10.220;2024-01-27T10:03:03;30.55;;;19.95;;
78824;SDS011;68176;45.554;10.220;2024-01-27T10:05:32;29.80;;;21.90;;
78824;SDS011;68176;45.554;10.220;2024-01-27T10:08:05;34.47;;;19.92;;
78824;SDS011;68176;45.554;10.220;2024-01-27T10:10:33;27.27;;;20.80;;
78824;SDS011;68176;45.554;10.220;2024-01-27T10:13:03;25.27;;;19.52;;
78824;SDS011;68176;45.554;10.220;2024-01-27T10:15:33;25.92;;;18.55;;
78824;SDS011;68176;45.554;10.220;2024-01-27T10:18:06;28.35;;;19.33;;
78824;SDS011;68176;45.554;10.220;2024-01-27T10:20:33;19.80;;;14.50;;
78824;SDS011;68176;45.554;10.220;2024-01-27T10:23:12;30.77;;;20.73;;
78824;SDS011;68176;45.554;10.220;2024-01-27T10:25:38;24.93;;;17.70;;
78824;SDS011;68176;45.554;10.220;2024-01-27T10:28:08;17.10;;;11.90;;
78824;SDS011;68176;45.554;10.220;2024-01-27T10:30:34;15.60;;;10.20;;
78824;SDS011;68176;45.554;10.220;2024-01-27T10:33:03;26.90;;;16.45;;
78824;SDS011;68176;45.554;10.220;2024-01-27T10:35:33;27.05;;;19.20;;
78824;SDS011;68176;45.554;10.220;2024-01-27T10:38:03;26.25;;;19.08;;
78824;SDS011;68176;45.554;10.220;2024-01-27T10:40:33;28.15;;;19.50;;
78824;SDS011;68176;45.554;10.220;2024-01-27T10:43:07;26.60;;;17.88;;
78824;SDS011;68176;45.554;10.220;2024-01-27T10:48:03;23.17;;;16.95;;
78824;SDS011;68176;45.554;10.220;2024-01-27T10:50:37;30.08;;;20.15;;
78824;SDS011;68176;45.554;10.220;2024-01-27T10:53:09;19.20;;;15.30;;
78824;SDS011;68176;45.554;10.220;2024-01-27T10:55:40;24.20;;;16.30;;
78824;SDS011;68176;45.554;10.220;2024-01-27T10:58:08;24.27;;;16.77;;
78824;SDS011;68176;45.554;10.220;2024-01-27T11:00:37;14.95;;;9.60;;
78824;SDS011;68176;45.554;10.220;2024-01-27T11:03:04;22.90;;;15.55;;
78824;SDS011;68176;45.554;10.220;2024-01-27T11:05:34;25.50;;;16.10;;
78824;SDS011;68176;45.554;10.220;2024-01-27T11:08:04;24.73;;;16.58;;
78824;SDS011;68176;45.554;10.220;2024-01-27T11:10:34;22.48;;;17.05;;
78824;SDS011;68176;45.554;10.220;2024-01-27T11:13:04;21.63;;;16.35;;
78824;SDS011;68176;45.554;10.220;2024-01-27T11:15:34;23.35;;;17.15;;
78824;SDS011;68176;45.554;10.220;2024-01-27T11:18:04;24.35;;;15.18;;
78824;SDS011;68176;45.554;10.220;2024-01-27T11:20:34;25.27;;;17.45;;
78824;SDS011;68176;45.554;10.220;2024-01-27T11:23:10;23.98;;;17.80;;
78824;SDS011;68176;45.554;10.220;2024-01-27T11:25:38;16.00;;;13.95;;
78824;SDS011;68176;45.554;10.220;2024-01-27T11:28:11;20.45;;;12.50;;
78824;SDS011;68176;45.554;10.220;2024-01-27T11:30:38;17.10;;;12.90;;
78824;SDS011;68176;45.554;10.220;2024-01-27T11:35:34;22.15;;;16.60;;
78824;SDS011;68176;45.554;10.220;2024-01-27T11:38:04;22.25;;;15.07;;
78824;SDS011;68176;45.554;10.220;2024-01-27T11:40:43;23.60;;;17.20;;
78824;SDS011;68176;45.554;10.220;2024-01-27T11:43:09;19.57;;;14.87;;
78824;SDS011;68176;45.554;10.220;2024-01-27T11:45:39;18.80;;;13.73;;
78824;SDS011;68176;45.554;10.220;2024-01-27T11:48:04;19.10;;;13.15;;
78824;SDS011;68176;45.554;10.220;2024-01-27T11:50:34;21.75;;;16.85;;
78824;SDS011;68176;45.554;10.220;2024-01-27T11:53:04;19.85;;;15.35;;
78824;SDS011;68176;45.554;10.220;2024-01-27T11:55:34;18.50;;;15.47;;
78824;SDS011;68176;45.554;10.220;2024-01-27T11:58:04;22.38;;;15.88;;
78824;SDS011;68176;45.554;10.220;2024-01-27T12:03:04;24.42;;;14.82;;
78824;SDS011;68176;45.554;10.220;2024-01-27T12:05:34;20.67;;;15.35;;
78824;SDS011;68176;45.554;10.220;2024-01-27T12:08:07;21.23;;;15.68;;
78824;SDS011;68176;45.554;10.220;2024-01-27T12:10:34;22.73;;;15.07;;
78824;SDS011;68176;45.554;10.220;2024-01-27T12:15:34;23.10;;;14.48;;
78824;SDS011;68176;45.554;10.220;2024-01-27T12:20:34;21.90;;;15.43;;
78824;SDS011;68176;45.554;10.220;2024-01-27T12:25:34;18.73;;;14.02;;
78824;SDS011;68176;45.554;10.220;2024-01-27T12:28:07;19.90;;;14.32;;
78824;SDS011;68176;45.554;10.220;2024-01-27T12:30:34;17.05;;;12.23;;
78824;SDS011;68176;45.554;10.220;2024-01-27T12:33:09;19.75;;;14.85;;
78824;SDS011;68176;45.554;10.220;2024-01-27T12:35:34;17.47;;;12.70;;
78824;SDS011;68176;45.554;10.220;2024-01-27T12:38:07;18.58;;;13.55;;
78824;SDS011;68176;45.554;10.220;2024-01-27T12:40:34;18.63;;;13.90;;
78824;SDS011;68176;45.554;10.220;2024-01-27T12:43:04;18.60;;;13.38;;
78824;SDS011;68176;45.554;10.220;2024-01-27T12:45:34;16.67;;;13.52;;
78824;SDS011;68176;45.554;10.220;2024-01-27T12:48:04;18.42;;;13.77;;
78824;SDS011;68176;45.554;10.220;2024-01-27T12:50:37;16.65;;;11.82;;
78824;SDS011;68176;45.554;10.220;2024-01-27T12:53:04;15.73;;;13.32;;
78824;SDS011;68176;45.554;10.220;2024-01-27T12:55:34;16.50;;;12.73;;
78824;SDS011;68176;45.554;10.220;2024-01-27T12:58:04;18.35;;;13.50;;
78824;SDS011;68176;45.554;10.220;2024-01-27T13:00:34;15.90;;;13.52;;
78824;SDS011;68176;45.554;10.220;2024-01-27T13:05:34;16.27;;;11.27;;
78824;SDS011;68176;45.554;10.220;2024-01-27T13:08:05;17.00;;;12.90;;
78824;SDS011;68176;45.554;10.220;2024-01-27T13:10:34;17.50;;;13.27;;
78824;SDS011;68176;45.554;10.220;2024-01-27T13:13:05;19.63;;;13.23;;
78824;SDS011;68176;45.554;10.220;2024-01-27T13:15:35;14.05;;;11.27;;
78824;SDS011;68176;45.554;10.220;2024-01-27T13:18:05;16.40;;;12.93;;
78824;SDS011;68176;45.554;10.220;2024-01-27T13:20:34;19.38;;;13.80;;
78824;SDS011;68176;45.554;10.220;2024-01-27T13:23:05;17.63;;;12.85;;
78824;SDS011;68176;45.554;10.220;2024-01-27T13:25:34;18.67;;;12.35;;
78824;SDS011;68176;45.554;10.220;2024-01-27T13:28:04;17.27;;;13.20;;
78824;SDS011;68176;45.554;10.220;2024-01-27T13:30:34;16.60;;;12.00;;
78824;SDS011;68176;45.554;10.220;2024-01-27T13:33:05;16.58;;;11.73;;
78824;SDS011;68176;45.554;10.220;2024-01-27T13:35:35;18.90;;;12.75;;
78824;SDS011;68176;45.554;10.220;2024-01-27T13:38:05;15.07;;;12.13;;
78824;SDS011;68176;45.554;10.220;2024-01-27T13:40:34;15.50;;;11.10;;
78824;SDS011;68176;45.554;10.220;2024-01-27T13:43:05;15.05;;;11.77;;
78824;SDS011;68176;45.554;10.220;2024-01-27T13:45:34;15.93;;;11.57;;
78824;SDS011;68176;45.554;10.220;2024-01-27T13:50:35;16.33;;;12.63;;
78824;SDS011;68176;45.554;10.220;2024-01-27T13:53:05;15.68;;;11.50;;
78824;SDS011;68176;45.554;10.220;2024-01-27T13:55:35;17.10;;;12.45;;
78824;SDS011;68176;45.554;10.220;2024-01-27T13:58:05;14.23;;;11.60;;
78824;SDS011;68176;45.554;10.220;2024-01-27T14:00:35;14.57;;;11.52;;
78824;SDS011;68176;45.554;10.220;2024-01-27T14:05:35;16.10;;;11.93;;
78824;SDS011;68176;45.554;10.220;2024-01-27T14:08:05;16.25;;;11.25;;
78824;SDS011;68176;45.554;10.220;2024-01-27T14:10:35;13.18;;;10.18;;
78824;SDS011;68176;45.554;10.220;2024-01-27T14:13:05;14.18;;;11.38;;
78824;SDS011;68176;45.554;10.220;2024-01-27T14:15:35;16.38;;;11.13;;
78824;SDS011;68176;45.554;10.220;2024-01-27T14:18:05;16.55;;;11.27;;
78824;SDS011;68176;45.554;10.220;2024-01-27T14:20:35;15.15;;;11.43;;
78824;SDS011;68176;45.554;10.220;2024-01-27T14:23:05;16.98;;;10.98;;
78824;SDS011;68176;45.554;10.220;2024-01-27T14:25:35;15.20;;;10.88;;
78824;SDS011;68176;45.554;10.220;2024-01-27T14:28:05;14.18;;;11.18;;
78824;SDS011;68176;45.554;10.220;2024-01-27T14:30:35;14.63;;;10.60;;
78824;SDS011;68176;45.554;10.220;2024-01-27T14:33:05;13.32;;;10.93;;
78824;SDS011;68176;45.554;10.220;2024-01-27T14:35:35;16.52;;;11.68;;
78824;SDS011;68176;45.554;10.220;2024-01-27T14:38:05;18.05;;;12.07;;
78824;SDS011;68176;45.554;10.220;2024-01-27T14:40:35;16.02;;;10.77;;
78824;SDS011;68176;45.554;10.220;2024-01-27T14:43:05;15.48;;;11.70;;
78824;SDS011;68176;45.554;10.220;2024-01-27T14:45:35;11.25;;;9.45;;
78824;SDS011;68176;45.554;10.220;2024-01-27T14:48:05;15.55;;;11.05;;
78824;SDS011;68176;45.554;10.220;2024-01-27T14:50:35;15.45;;;10.90;;
78824;SDS011;68176;45.554;10.220;2024-01-27T14:53:05;15.90;;;12.25;;
78824;SDS011;68176;45.554;10.220;2024-01-27T14:55:35;16.02;;;10.77;;
78824;SDS011;68176;45.554;10.220;2024-01-27T15:00:35;14.82;;;11.13;;
78824;SDS011;68176;45.554;10.220;2024-01-27T15:03:08;12.32;;;9.70;;
78824;SDS011;68176;45.554;10.220;2024-01-27T15:05:35;16.55;;;12.45;;
78824;SDS011;68176;45.554;10.220;2024-01-27T15:08:06;11.82;;;10.35;;
78824;SDS011;68176;45.554;10.220;2024-01-27T15:10:35;13.95;;;10.23;;
78824;SDS011;68176;45.554;10.220;2024-01-27T15:13:05;14.32;;;11.30;;
78824;SDS011;68176;45.554;10.220;2024-01-27T15:15:35;15.00;;;11.75;;
78824;SDS011;68176;45.554;10.220;2024-01-27T15:18:05;17.75;;;12.52;;
78824;SDS011;68176;45.554;10.220;2024-01-27T15:20:35;16.05;;;13.98;;
78824;SDS011;68176;45.554;10.220;2024-01-27T15:23:05;14.88;;;12.13;;
78824;SDS011;68176;45.554;10.220;2024-01-27T15:25:35;14.52;;;12.60;;
78824;SDS011;68176;45.554;10.220;2024-01-27T15:30:35;16.85;;;12.10;;
78824;SDS011;68176;45.554;10.220;2024-01-27T15:33:05;15.00;;;10.38;;
78824;SDS011;68176;45.554;10.220;2024-01-27T15:35:35;15.18;;;11.05;;
78824;SDS011;68176;45.554;10.220;2024-01-27T15:38:05;17.75;;;11.32;;
78824;SDS011;68176;45.554;10.220;2024-01-27T15:40:35;17.23;;;11.10;;
78824;SDS011;68176;45.554;10.220;2024-01-27T15:43:05;15.32;;;11.77;;
78824;SDS011;68176;45.554;10.220;2024-01-27T15:48:05;14.57;;;11.23;;
78824;SDS011;68176;45.554;10.220;2024-01-27T15:50:35;15.75;;;11.40;;
78824;SDS011;68176;45.554;10.220;2024-01-27T15:55:35;14.45;;;10.35;;
78824;SDS011;68176;45.554;10.220;2024-01-27T15:58:05;12.68;;;10.23;;
78824;SDS011;68176;45.554;10.220;2024-01-27T16:00:35;15.38;;;11.35;;
78824;SDS011;68176;45.554;10.220;2024-01-27T16:03:05;15.95;;;11.82;;
78824;SDS011;68176;45.554;10.220;2024-01-27T16:05:35;15.55;;;11.20;;
78824;SDS011;68176;45.554;10.220;2024-01-27T16:08:06;12.27;;;10.48;;
78824;SDS011;68176;45.554;10.220;2024-01-27T16:10:36;15.60;;;11.82;;
78824;SDS011;68176;45.554;10.220;2024-01-27T16:13:05;14.57;;;10.57;;